Time;durP1;ratioP1;P1;durP2;ratioP2;P2;SDS_P1;SDS_P2;PMS_P1;PMS_P2;Temp;Humidity;BMP_temperature;BMP_pressure;BME280_temperature;BME280_humidity;BME280_pressure;Samples;Min_cycle;Max_cycle;Signal;HPM_P1;HPM_P2
2021/05/29 00:01:12;;;;;;;0.88;0.60;;;22.90;36.50;;;;;;5012840;28;20140;-62
2021/05/29 00:03:38;;;;;;;0.77;0.50;;;22.90;36.50;;;;;;5012090;28;20033;-62
2021/05/29 00:06:05;;;;;;;0.70;0.57;;;22.80;36.50;;;;;;5012321;28;20056;-62
2021/05/29 00:08:31;;;;;;;2.58;0.60;;;22.80;36.60;;;;;;5013446;28;20037;-60
2021/05/29 00:10:59;;;;;;;1.40;0.88;;;22.80;36.60;;;;;;5012384;28;20429;-62
2021/05/29 00:13:26;;;;;;;0.90;0.60;;;22.80;36.70;;;;;;5012081;28;20119;-62
2021/05/29 00:15:53;;;;;;;0.93;0.63;;;22.80;36.70;;;;;;5010353;28;20026;-63
2021/05/29 00:18:19;;;;;;;0.60;0.60;;;22.80;36.70;;;;;;5012167;28;20029;-60
2021/05/29 00:20:46;;;;;;;0.73;0.60;;;22.80;36.80;;;;;;5011384;28;20449;-63
2021/05/29 00:23:13;;;;;;;0.75;0.60;;;22.80;36.80;;;;;;5012240;28;20030;-64
2021/05/29 00:25:40;;;;;;;0.68;0.52;;;22.80;36.80;;;;;;5012720;28;20021;-62
2021/05/29 00:28:05;;;;;;;0.55;0.50;;;22.80;36.90;;;;;;5011736;28;20101;-63
2021/05/29 00:30:31;;;;;;;0.98;0.60;;;22.70;36.90;;;;;;5013075;28;20141;-62
2021/05/29 00:32:58;;;;;;;0.73;0.70;;;22.70;36.90;;;;;;5012443;28;20034;-62
2021/05/29 00:35:24;;;;;;;0.82;0.57;;;22.70;36.90;;;;;;5011533;28;20046;-61
2021/05/29 00:37:50;;;;;;;0.82;0.60;;;22.70;36.90;;;;;;5011959;28;20385;-63
2021/05/29 00:40:16;;;;;;;1.40;0.70;;;22.70;37.00;;;;;;5012241;28;20030;-63
2021/05/29 00:42:43;;;;;;;0.98;0.80;;;22.70;37.00;;;;;;5012527;28;20072;-63
2021/05/29 00:45:09;;;;;;;1.60;0.70;;;22.70;37.00;;;;;;5012683;28;20026;-62
2021/05/29 00:47:35;;;;;;;2.15;0.80;;;22.70;37.10;;;;;;5010772;28;20045;-63
2021/05/29 00:50:05;;;;;;;1.70;0.95;;;22.70;37.10;;;;;;5012926;28;20444;-64
2021/05/29 00:52:33;;;;;;;1.15;0.60;;;22.70;37.10;;;;;;5010819;28;20033;-61
2021/05/29 00:54:59;;;;;;;0.82;0.60;;;22.60;37.10;;;;;;5012887;28;20050;-62
2021/05/29 00:57:24;;;;;;;1.17;0.60;;;22.70;37.20;;;;;;5011891;28;20485;-63
2021/05/29 00:59:50;;;;;;;1.33;0.60;;;22.70;37.20;;;;;;5013913;28;20507;-62
2021/05/29 01:02:17;;;;;;;1.25;0.70;;;22.70;37.20;;;;;;5012521;28;20033;-63
2021/05/29 01:04:46;;;;;;;1.20;0.70;;;22.60;37.20;;;;;;5011473;28;20445;-64
2021/05/29 01:07:17;;;;;;;0.70;0.60;;;22.60;37.20;;;;;;5011456;28;20026;-64
2021/05/29 01:09:44;;;;;;;1.52;0.70;;;22.60;37.20;;;;;;5012276;28;20057;-63
2021/05/29 01:12:14;;;;;;;0.60;0.60;;;22.60;37.20;;;;;;5012151;28;20038;-63
2021/05/29 01:15:05;;;;;;;1.00;0.50;;;22.60;37.20;;;;;;5008177;28;20034;-62
2021/05/29 01:17:29;;;;;;;0.63;0.50;;;22.60;37.30;;;;;;5011249;28;20048;-62
2021/05/29 01:19:55;;;;;;;0.82;0.50;;;22.60;37.30;;;;;;5011389;28;20033;-63
2021/05/29 01:22:47;;;;;;;1.38;0.80;;;22.60;37.30;;;;;;5012291;28;20073;-63
2021/05/29 01:25:25;;;;;;;1.05;0.52;;;22.60;37.30;;;;;;5012078;28;20065;-64
2021/05/29 01:28:01;;;;;;;1.13;0.60;;;22.60;37.30;;;;;;5010064;28;20525;-63
2021/05/29 01:30:30;;;;;;;0.70;0.60;;;22.60;37.30;;;;;;5025332;28;20465;-63
2021/05/29 01:32:58;;;;;;;0.85;0.63;;;22.50;37.20;;;;;;5010856;28;20483;-63
2021/05/29 01:35:25;;;;;;;0.65;0.52;;;22.50;37.20;;;;;;5010607;28;21740;-63
2021/05/29 01:37:52;;;;;;;0.93;0.50;;;22.50;37.20;;;;;;5010020;28;20449;-63
2021/05/29 01:40:18;;;;;;;0.88;0.50;;;22.50;37.10;;;;;;5011963;28;20066;-65
2021/05/29 01:42:44;;;;;;;0.50;0.43;;;22.50;37.10;;;;;;5011765;28;20378;-62
2021/05/29 01:45:11;;;;;;;1.00;0.47;;;22.50;37.00;;;;;;5012026;28;20121;-64
2021/05/29 01:47:42;;;;;;;1.17;0.55;;;22.50;37.00;;;;;;5009747;28;20125;-64
2021/05/29 01:50:12;;;;;;;1.02;0.50;;;22.50;37.00;;;;;;5009074;28;20042;-61
2021/05/29 01:52:52;;;;;;;1.25;0.40;;;22.50;37.00;;;;;;5010722;28;20108;-62
2021/05/29 01:55:19;;;;;;;0.63;0.52;;;22.50;36.90;;;;;;5010660;28;20031;-62
2021/05/29 01:57:46;;;;;;;0.40;0.40;;;22.40;36.90;;;;;;5009148;28;20481;-62
2021/05/29 02:00:13;;;;;;;0.82;0.55;;;22.50;37.00;;;;;;5011895;28;20113;-63
2021/05/29 02:02:39;;;;;;;0.52;0.40;;;22.40;36.90;;;;;;5011470;28;20062;-62
2021/05/29 02:05:17;;;;;;;0.82;0.52;;;22.40;36.90;;;;;;5014664;28;20026;-62
2021/05/29 02:07:44;;;;;;;0.65;0.40;;;22.40;36.90;;;;;;5013799;28;20449;-63
2021/05/29 02:10:15;;;;;;;1.15;0.60;;;22.40;36.90;;;;;;5015525;28;20354;-63
2021/05/29 02:12:47;;;;;;;0.63;0.50;;;22.40;36.90;;;;;;5011596;28;20121;-63
2021/05/29 02:15:18;;;;;;;0.85;0.63;;;22.40;36.90;;;;;;5013126;28;20038;-61
2021/05/29 02:17:46;;;;;;;1.10;0.70;;;22.40;36.90;;;;;;5014373;28;20038;-61
2021/05/29 02:20:12;;;;;;;0.68;0.50;;;22.40;36.90;;;;;;5014351;28;20092;-61
2021/05/29 02:22:38;;;;;;;0.32;0.30;;;22.40;36.90;;;;;;5014689;28;20037;-63
2021/05/29 02:25:06;;;;;;;0.40;0.30;;;22.40;37.50;;;;;;5012664;28;20052;-63
2021/05/29 02:27:31;;;;;;;0.80;0.50;;;22.40;36.80;;;;;;5012774;28;20405;-62
2021/05/29 02:29:58;;;;;;;1.30;0.70;;;22.40;36.90;;;;;;5014846;28;20030;-62
2021/05/29 02:32:24;;;;;;;0.80;0.40;;;22.30;36.80;;;;;;5013737;28;20092;-61
2021/05/29 02:34:49;;;;;;;0.50;0.43;;;22.40;36.80;;;;;;5014490;28;20061;-63
2021/05/29 02:37:15;;;;;;;0.75;0.60;;;22.30;36.80;;;;;;5014147;28;20441;-62
2021/05/29 02:39:41;;;;;;;1.35;0.50;;;22.30;36.80;;;;;;5011934;28;20034;-63
2021/05/29 02:42:07;;;;;;;0.77;0.57;;;22.30;36.80;;;;;;5013877;28;20061;-63
2021/05/29 02:44:33;;;;;;;0.57;0.35;;;22.40;36.80;;;;;;5013326;28;20065;-64
2021/05/29 02:46:59;;;;;;;0.68;0.40;;;22.30;36.80;;;;;;5014091;28;20057;-62
2021/05/29 02:49:25;;;;;;;0.70;0.50;;;22.30;36.80;;;;;;5013027;28;20500;-62
2021/05/29 02:51:51;;;;;;;0.90;0.60;;;22.30;36.80;;;;;;5013762;28;20187;-62
2021/05/29 02:54:17;;;;;;;1.08;0.50;;;22.30;36.80;;;;;;5013878;28;20425;-64
2021/05/29 02:56:43;;;;;;;1.08;0.60;;;22.30;36.90;;;;;;5014485;28;20026;-62
2021/05/29 02:59:09;;;;;;;0.63;0.57;;;22.30;36.90;;;;;;5014862;28;20033;-62
2021/05/29 03:01:34;;;;;;;1.30;0.68;;;22.20;36.90;;;;;;5014142;28;20353;-63
2021/05/29 03:04:00;;;;;;;1.05;0.70;;;22.20;36.90;;;;;;5014379;28;20022;-62
2021/05/29 03:06:26;;;;;;;0.93;0.68;;;22.30;36.90;;;;;;5013790;28;20037;-61
2021/05/29 03:08:52;;;;;;;0.98;0.70;;;22.20;36.90;;;;;;5013548;28;20022;-63
2021/05/29 03:11:18;;;;;;;0.50;0.50;;;22.20;36.90;;;;;;5012836;28;20044;-62
2021/05/29 03:13:44;;;;;;;1.00;0.60;;;22.20;36.90;;;;;;5013613;28;20358;-63
2021/05/29 03:16:10;;;;;;;0.82;0.50;;;22.20;36.90;;;;;;5012606;28;20466;-64
2021/05/29 03:18:36;;;;;;;1.00;0.60;;;22.20;36.90;;;;;;5013822;28;20026;-62
2021/05/29 03:21:02;;;;;;;2.15;0.82;;;22.20;36.90;;;;;;5013380;28;20022;-61
2021/05/29 03:23:28;;;;;;;1.02;0.55;;;22.20;37.00;;;;;;5014042;28;20026;-62
2021/05/29 03:25:54;;;;;;;0.93;0.52;;;22.20;37.00;;;;;;5013338;28;20042;-61
2021/05/29 03:28:19;;;;;;;1.23;0.75;;;22.20;37.00;;;;;;5013513;28;20033;-61
2021/05/29 03:30:45;;;;;;;0.57;0.50;;;22.10;37.00;;;;;;5013873;28;20030;-63
2021/05/29 03:33:13;;;;;;;1.45;0.80;;;22.20;37.10;;;;;;5013575;28;20076;-61
2021/05/29 03:35:40;;;;;;;1.40;0.70;;;22.10;37.10;;;;;;5012939;28;20049;-62
2021/05/29 03:38:06;;;;;;;0.70;0.68;;;22.10;37.10;;;;;;5013579;28;20377;-62
2021/05/29 03:40:32;;;;;;;1.45;0.60;;;22.10;37.10;;;;;;5013003;28;20369;-60
2021/05/29 03:42:58;;;;;;;0.82;0.60;;;22.10;37.20;;;;;;5013183;28;20105;-62
2021/05/29 03:45:24;;;;;;;1.05;0.80;;;22.10;37.20;;;;;;5012870;28;20125;-61
2021/05/29 03:47:50;;;;;;;2.03;0.80;;;22.10;37.30;;;;;;5011603;28;20374;-61
2021/05/29 03:50:24;;;;;;;0.93;0.82;;;22.10;37.30;;;;;;5013245;28;20048;-61
2021/05/29 03:52:50;;;;;;;1.00;0.88;;;22.10;37.90;;;;;;5011867;28;20133;-60
2021/05/29 03:55:17;;;;;;;1.48;0.70;;;22.10;37.30;;;;;;5012088;28;20374;-62
2021/05/29 03:57:45;;;;;;;0.95;0.70;;;22.10;37.30;;;;;;5013687;28;20036;-61
2021/05/29 04:00:12;;;;;;;1.15;0.70;;;22.10;37.30;;;;;;5013093;28;20018;-64
2021/05/29 04:02:42;;;;;;;1.42;0.90;;;22.10;37.30;;;;;;5013389;28;20054;-62
2021/05/29 04:05:09;;;;;;;1.58;0.80;;;22.10;37.30;;;;;;5011874;28;20404;-62
2021/05/29 04:07:35;;;;;;;0.75;0.63;;;22.10;37.30;;;;;;5012186;28;20041;-63
2021/05/29 04:10:01;;;;;;;0.90;0.75;;;22.10;37.30;;;;;;5012771;28;20445;-63
2021/05/29 04:12:30;;;;;;;1.00;0.60;;;22.10;37.30;;;;;;5012575;28;20037;-61
2021/05/29 04:14:56;;;;;;;1.23;0.70;;;22.10;37.40;;;;;;5012075;28;20052;-62
2021/05/29 04:17:22;;;;;;;0.95;0.60;;;22.10;37.40;;;;;;5013192;28;20109;-61
2021/05/29 04:19:48;;;;;;;1.42;0.75;;;22.10;37.40;;;;;;5011828;28;20460;-62
2021/05/29 04:22:13;;;;;;;0.75;0.70;;;22.10;37.40;;;;;;5011224;28;20099;-61
2021/05/29 04:24:39;;;;;;;0.95;0.70;;;22.10;37.40;;;;;;5008309;28;20037;-61
2021/05/29 04:27:05;;;;;;;1.25;0.70;;;22.10;37.40;;;;;;5011898;28;20098;-62
2021/05/29 04:29:31;;;;;;;1.02;0.63;;;22.10;37.40;;;;;;5012427;28;20033;-61
2021/05/29 04:31:57;;;;;;;0.80;0.70;;;22.10;37.40;;;;;;5009953;28;20048;-63
2021/05/29 04:34:23;;;;;;;0.82;0.77;;;22.10;37.40;;;;;;5012057;28;20034;-64
2021/05/29 04:36:49;;;;;;;1.42;0.70;;;22.10;37.40;;;;;;5013140;28;20408;-61
2021/05/29 04:39:14;;;;;;;1.20;0.70;;;22.10;37.40;;;;;;5012265;28;20038;-62
2021/05/29 04:41:40;;;;;;;1.38;0.80;;;22.10;37.40;;;;;;5010438;28;20034;-64
2021/05/29 04:44:06;;;;;;;1.02;0.57;;;22.10;37.40;;;;;;5012341;28;20022;-62
2021/05/29 04:46:38;;;;;;;0.70;0.65;;;22.10;37.40;;;;;;5012192;28;20030;-63
2021/05/29 04:49:05;;;;;;;0.70;0.70;;;22.10;37.40;;;;;;5011942;28;20038;-61
2021/05/29 04:51:31;;;;;;;0.75;0.60;;;22.10;37.40;;;;;;5011796;28;20050;-62
2021/05/29 04:53:56;;;;;;;1.25;0.80;;;22.10;37.50;;;;;;5011637;28;20049;-62
2021/05/29 04:56:22;;;;;;;1.42;0.90;;;22.10;37.50;;;;;;5012173;28;20125;-63
2021/05/29 04:58:48;;;;;;;0.63;0.63;;;22.10;37.50;;;;;;5011668;28;20084;-62
2021/05/29 05:01:14;;;;;;;1.02;0.93;;;22.10;37.50;;;;;;5012582;28;20037;-62
2021/05/29 05:03:40;;;;;;;1.88;0.90;;;22.10;37.60;;;;;;5011748;28;20040;-60
2021/05/29 05:06:07;;;;;;;2.35;0.75;;;22.10;37.60;;;;;;5010861;28;20037;-62
2021/05/29 05:08:33;;;;;;;1.20;0.60;;;22.10;37.60;;;;;;5011370;28;20438;-62
2021/05/29 05:10:59;;;;;;;1.13;0.77;;;22.10;37.70;;;;;;5012278;28;20026;-62
2021/05/29 05:13:25;;;;;;;0.65;0.65;;;22.10;37.70;;;;;;5012825;28;20386;-61
2021/05/29 05:15:52;;;;;;;1.45;1.00;;;22.10;37.80;;;;;;5010307;28;20030;-61
2021/05/29 05:18:20;;;;;;;1.10;0.80;;;22.10;37.70;;;;;;5011946;28;20033;-61
2021/05/29 05:20:47;;;;;;;1.35;0.85;;;22.20;37.80;;;;;;5010440;28;20128;-64
2021/05/29 05:23:13;;;;;;;0.75;0.55;;;22.10;37.80;;;;;;5011707;28;20030;-62
2021/05/29 05:25:39;;;;;;;1.20;0.70;;;22.10;37.80;;;;;;5011323;28;20461;-61
2021/05/29 05:28:05;;;;;;;0.85;0.70;;;22.10;37.90;;;;;;5012770;28;20070;-64
2021/05/29 05:30:31;;;;;;;1.38;0.77;;;22.20;38.60;;;;;;5012096;28;20100;-62
2021/05/29 05:33:03;;;;;;;1.10;0.80;;;22.10;37.90;;;;;;5011291;28;20450;-62
2021/05/29 05:35:30;;;;;;;1.20;0.88;;;22.10;38.00;;;;;;5011042;28;20046;-63
2021/05/29 05:37:56;;;;;;;1.30;0.93;;;22.20;38.00;;;;;;5011358;28;20017;-61
2021/05/29 05:40:21;;;;;;;1.30;0.98;;;22.10;38.00;;;;;;5014907;28;20091;-63
2021/05/29 05:42:47;;;;;;;1.60;0.88;;;22.20;38.10;;;;;;5015435;28;20120;-61
2021/05/29 05:45:14;;;;;;;0.90;0.70;;;22.10;38.10;;;;;;5015591;28;20025;-63
2021/05/29 05:47:40;;;;;;;1.58;0.85;;;22.20;38.10;;;;;;5014539;28;20041;-62
2021/05/29 05:50:09;;;;;;;1.35;0.90;;;22.20;38.10;;;;;;5014121;28;20053;-63
2021/05/29 05:52:36;;;;;;;0.70;0.70;;;22.20;38.20;;;;;;5015220;28;20049;-62
2021/05/29 05:55:03;;;;;;;1.50;1.02;;;22.20;38.20;;;;;;5015049;28;20025;-61
2021/05/29 05:57:32;;;;;;;1.25;1.00;;;22.20;38.20;;;;;;5013765;28;20026;-62
2021/05/29 05:59:58;;;;;;;1.30;0.85;;;22.20;38.20;;;;;;5014388;28;20088;-62
2021/05/29 06:02:23;;;;;;;2.00;0.90;;;22.20;38.20;;;;;;5014894;28;20112;-61
2021/05/29 06:04:49;;;;;;;1.20;0.88;;;22.20;38.20;;;;;;5014061;28;20405;-62
2021/05/29 06:07:15;;;;;;;1.00;0.70;;;22.10;38.20;;;;;;5014868;28;20111;-63
2021/05/29 06:09:41;;;;;;;1.45;0.80;;;22.20;38.20;;;;;;5014871;28;20115;-63
2021/05/29 06:12:07;;;;;;;1.08;0.80;;;22.20;38.30;;;;;;5014736;28;20061;-63
2021/05/29 06:20:09;;;;;;;1.20;0.90;;;22.20;38.30;;;;;;5013943;28;20400;-60
2021/05/29 06:22:35;;;;;;;1.17;0.88;;;22.20;38.20;;;;;;5013322;28;20041;-63
2021/05/29 06:25:00;;;;;;;0.93;0.82;;;22.20;38.20;;;;;;5014240;28;20026;-63
2021/05/29 06:27:26;;;;;;;0.65;0.65;;;22.20;38.20;;;;;;5013460;28;20392;-63
2021/05/29 06:29:52;;;;;;;1.70;1.08;;;22.20;38.20;;;;;;5015362;28;20124;-61
2021/05/29 06:32:18;;;;;;;1.02;0.88;;;22.20;38.20;;;;;;5013314;28;20468;-63
2021/05/29 06:34:43;;;;;;;1.10;0.98;;;22.20;38.30;;;;;;5012086;28;20026;-62
2021/05/29 06:37:09;;;;;;;1.10;0.85;;;22.20;38.30;;;;;;5012610;28;20430;-62
2021/05/29 06:39:35;;;;;;;1.33;1.15;;;22.20;38.30;;;;;;5010425;28;20018;-62
2021/05/29 06:42:01;;;;;;;1.45;1.10;;;22.20;38.30;;;;;;5014008;28;20093;-62
2021/05/29 06:44:27;;;;;;;1.10;1.00;;;22.20;38.30;;;;;;5014263;28;20021;-61
2021/05/29 06:46:53;;;;;;;1.20;1.10;;;22.20;38.30;;;;;;5011950;28;20045;-62
2021/05/29 06:49:21;;;;;;;1.77;1.10;;;22.20;38.30;;;;;;5011946;28;20030;-63
2021/05/29 06:51:58;;;;;;;1.83;1.10;;;22.20;38.40;;;;;;5011800;28;20041;-61
2021/05/29 06:58:37;;;;;;;1.90;1.25;;;22.30;38.40;;;;;;5013901;28;20072;-62
2021/05/29 06:59:54;;;;;;;1.80;1.30;;;22.30;38.40;;;;;;5014913;28;20750;-62
2021/05/29 07:02:20;;;;;;;1.73;1.23;;;22.40;38.40;;;;;;5012126;28;20164;-63
2021/05/29 07:04:47;;;;;;;1.33;1.00;;;22.40;38.30;;;;;;5010010;28;20453;-64
2021/05/29 07:07:13;;;;;;;1.20;1.10;;;22.50;38.20;;;;;;5012573;28;20018;-65
2021/05/29 07:09:39;;;;;;;2.20;1.30;;;22.50;38.10;;;;;;5013754;28;20155;-65
2021/05/29 07:12:05;;;;;;;1.52;1.30;;;22.50;38.00;;;;;;5011624;28;20438;-61
2021/05/29 07:14:31;;;;;;;3.08;1.20;;;22.60;37.90;;;;;;5013431;28;20026;-63
2021/05/29 07:16:57;;;;;;;1.35;1.25;;;22.60;37.90;;;;;;5013538;28;20041;-63
2021/05/29 07:19:27;;;;;;;1.65;1.00;;;22.60;37.80;;;;;;5012406;28;20073;-64
2021/05/29 07:21:53;;;;;;;1.35;1.25;;;22.60;37.70;;;;;;5013176;28;20100;-62
2021/05/29 07:24:19;;;;;;;1.95;1.42;;;22.70;38.30;;;;;;5013143;28;20025;-62
2021/05/29 07:26:46;;;;;;;1.20;1.00;;;22.70;37.70;;;;;;5013136;28;20109;-62
2021/05/29 07:29:12;;;;;;;1.23;1.02;;;22.70;37.60;;;;;;5012841;28;20026;-62
2021/05/29 07:31:38;;;;;;;1.23;0.93;;;22.70;37.60;;;;;;5014373;28;20049;-62
2021/05/29 07:34:04;;;;;;;1.77;1.50;;;22.80;37.60;;;;;;5013247;28;20033;-62
2021/05/29 07:36:30;;;;;;;1.40;1.23;;;22.80;37.50;;;;;;5012110;28;20026;-63
2021/05/29 07:38:56;;;;;;;1.25;1.15;;;22.80;37.50;;;;;;5010525;28;20112;-64
2021/05/29 07:41:22;;;;;;;1.90;1.20;;;22.80;37.50;;;;;;5011911;28;20523;-63
2021/05/29 07:43:48;;;;;;;1.42;1.33;;;22.90;37.50;;;;;;5012808;28;20037;-62
2021/05/29 07:46:16;;;;;;;1.40;1.30;;;22.90;37.40;;;;;;5011894;28;20105;-63
2021/05/29 07:48:41;;;;;;;1.55;1.38;;;22.90;37.40;;;;;;5011254;28;20111;-63
2021/05/29 07:51:07;;;;;;;1.17;1.08;;;22.90;37.30;;;;;;5012638;28;20430;-63
2021/05/29 07:53:36;;;;;;;1.35;1.23;;;22.90;37.30;;;;;;5012484;28;20042;-62
2021/05/29 07:56:08;;;;;;;1.70;1.35;;;22.90;37.30;;;;;;5011285;28;20081;-62
2021/05/29 07:58:35;;;;;;;1.38;1.27;;;22.90;37.30;;;;;;5012327;28;20121;-62
2021/05/29 08:01:02;;;;;;;1.67;1.30;;;23.00;37.30;;;;;;5012534;28;20092;-63
2021/05/29 08:03:29;;;;;;;2.15;1.23;;;23.00;37.30;;;;;;5013273;28;20080;-63
2021/05/29 08:05:56;;;;;;;1.42;1.08;;;23.00;37.30;;;;;;5012424;28;20458;-62
2021/05/29 08:08:23;;;;;;;1.67;1.20;;;23.10;37.40;;;;;;5012409;28;20434;-60
2021/05/29 08:10:51;;;;;;;1.60;1.50;;;23.10;37.30;;;;;;5011490;28;20100;-62
2021/05/29 08:13:18;;;;;;;1.33;0.98;;;23.10;37.30;;;;;;5011868;28;20133;-63
2021/05/29 08:15:45;;;;;;;1.27;1.17;;;23.10;37.30;;;;;;5013620;28;20087;-63
2021/05/29 08:18:12;;;;;;;2.55;1.52;;;23.10;37.30;;;;;;5012525;28;20358;-61
2021/05/29 08:20:38;;;;;;;1.50;1.30;;;23.10;37.30;;;;;;5012283;28;20025;-60
2021/05/29 08:23:05;;;;;;;1.20;1.10;;;23.10;37.30;;;;;;5011258;28;20030;-62
2021/05/29 08:25:32;;;;;;;1.58;1.20;;;23.10;37.30;;;;;;5007808;28;20348;-62
2021/05/29 08:27:58;;;;;;;1.77;1.17;;;23.10;37.30;;;;;;5011953;28;20025;-62
2021/05/29 08:30:24;;;;;;;1.42;1.30;;;23.10;37.30;;;;;;5005664;28;20033;-63
2021/05/29 08:32:50;;;;;;;1.27;1.10;;;23.10;37.30;;;;;;5010052;28;20038;-61
2021/05/29 08:35:16;;;;;;;1.40;1.30;;;23.10;37.30;;;;;;5011672;28;20076;-63
2021/05/29 08:37:44;;;;;;;1.40;1.15;;;23.10;37.30;;;;;;5012770;28;20022;-62
2021/05/29 08:40:12;;;;;;;1.50;1.23;;;23.10;37.30;;;;;;5012545;28;20124;-60
2021/05/29 08:42:38;;;;;;;1.40;1.20;;;23.10;37.40;;;;;;5010983;28;20086;-62
2021/05/29 08:45:06;;;;;;;3.35;1.30;;;23.20;37.40;;;;;;5010947;28;20072;-65
2021/05/29 08:47:32;;;;;;;2.22;1.50;;;23.10;37.40;;;;;;5011947;28;20077;-62
2021/05/29 08:49:57;;;;;;;1.70;1.23;;;23.20;37.50;;;;;;5012434;28;20434;-60
2021/05/29 08:52:23;;;;;;;2.75;1.10;;;23.20;37.50;;;;;;5011217;28;20103;-61
2021/05/29 08:54:49;;;;;;;1.27;1.10;;;23.20;37.50;;;;;;5011910;28;20033;-67
2021/05/29 08:57:17;;;;;;;1.83;1.17;;;23.20;37.50;;;;;;5012155;28;20078;-65
2021/05/29 08:59:43;;;;;;;1.48;1.00;;;23.20;37.50;;;;;;5012052;28;20455;-63
2021/05/29 09:02:09;;;;;;;1.23;1.10;;;23.20;37.50;;;;;;5011882;28;20037;-63
2021/05/29 09:04:35;;;;;;;1.50;1.00;;;23.20;37.50;;;;;;5010719;28;20029;-60
2021/05/29 09:07:02;;;;;;;1.80;1.15;;;23.30;37.60;;;;;;5011987;28;20022;-63
2021/05/29 09:09:28;;;;;;;1.33;1.00;;;23.30;37.60;;;;;;5012582;28;20040;-65
2021/05/29 09:12:03;;;;;;;1.20;1.10;;;23.30;37.60;;;;;;5012435;28;20034;-65
2021/05/29 09:14:30;;;;;;;1.50;0.90;;;23.30;37.60;;;;;;5016114;28;20030;-64
2021/05/29 09:17:07;;;;;;;1.08;0.90;;;23.30;37.60;;;;;;5016355;28;20425;-60
2021/05/29 09:19:54;;;;;;;1.40;0.90;;;23.40;37.60;;;;;;5014718;28;20038;-63
2021/05/29 09:22:24;;;;;;;2.22;0.95;;;23.40;37.60;;;;;;5013735;28;20021;-62
2021/05/29 09:25:01;;;;;;;1.60;1.10;;;23.40;37.70;;;;;;5014269;28;20029;-61
2021/05/29 09:27:27;;;;;;;2.65;0.88;;;23.40;37.60;;;;;;5015880;28;20091;-60
2021/05/29 09:29:53;;;;;;;1.13;0.80;;;23.40;37.70;;;;;;5016540;28;20530;-61
2021/05/29 09:32:18;;;;;;;2.20;1.30;;;23.40;37.70;;;;;;5014748;28;20050;-60
2021/05/29 09:34:56;;;;;;;1.85;1.08;;;23.40;37.70;;;;;;5015418;28;20131;-61
2021/05/29 09:37:28;;;;;;;1.10;0.95;;;23.40;37.70;;;;;;5013567;28;20057;-62
2021/05/29 09:39:59;;;;;;;2.42;1.23;;;23.50;37.80;;;;;;5010886;28;20029;-62
2021/05/29 09:42:33;;;;;;;2.47;1.20;;;23.50;37.80;;;;;;5013527;28;20049;-63
2021/05/29 09:45:16;;;;;;;1.10;0.73;;;23.50;37.80;;;;;;5015127;28;20331;-64
2021/05/29 09:47:42;;;;;;;1.33;1.00;;;23.50;37.90;;;;;;5014984;28;20034;-63
2021/05/29 09:50:08;;;;;;;1.30;0.90;;;23.50;37.90;;;;;;5016079;28;20036;-59
2021/05/29 09:52:40;;;;;;;1.20;0.90;;;23.50;37.80;;;;;;5015150;28;20454;-61
2021/05/29 09:55:08;;;;;;;1.20;0.95;;;23.60;37.80;;;;;;5014753;28;20469;-62
2021/05/29 09:57:58;;;;;;;1.40;1.00;;;23.60;37.80;;;;;;4997476;28;20044;-63
2021/05/29 10:00:46;;;;;;;1.02;0.90;;;23.60;37.80;;;;;;5015114;28;20351;-58
2021/05/29 10:03:12;;;;;;;3.08;1.02;;;23.60;37.80;;;;;;5015716;28;20038;-58
2021/05/29 10:05:47;;;;;;;2.60;1.10;;;23.60;37.80;;;;;;5014772;28;20037;-58
2021/05/29 10:08:15;;;;;;;1.77;1.17;;;23.60;37.80;;;;;;5012683;28;20104;-59
2021/05/29 10:10:42;;;;;;;1.25;1.00;;;23.60;37.70;;;;;;5011441;28;20113;-60
2021/05/29 10:13:09;;;;;;;2.25;1.30;;;23.60;37.70;;;;;;5014998;28;20061;-62
2021/05/29 10:15:35;;;;;;;1.45;0.90;;;23.60;37.60;;;;;;5014955;28;20045;-58
2021/05/29 10:18:03;;;;;;;2.75;1.35;;;23.70;37.60;;;;;;5013482;28;20033;-58
2021/05/29 10:20:34;;;;;;;1.23;1.10;;;23.70;37.60;;;;;;5013672;28;20157;-60
2021/05/29 10:23:00;;;;;;;1.00;0.90;;;23.70;37.50;;;;;;5014222;28;20065;-61
2021/05/29 10:25:26;;;;;;;1.10;1.00;;;23.70;37.50;;;;;;5014506;28;20116;-60
2021/05/29 10:27:54;;;;;;;1.38;1.27;;;23.70;37.40;;;;;;5014481;28;20441;-61
2021/05/29 10:30:22;;;;;;;2.72;1.33;;;23.70;37.40;;;;;;5014265;28;20109;-62
2021/05/29 10:33:19;;;;;;;1.33;1.17;;;23.70;37.40;;;;;;5014272;28;20082;-60
2021/05/29 10:35:48;;;;;;;1.27;1.08;;;23.80;37.40;;;;;;5014258;28;20340;-59
2021/05/29 10:38:14;;;;;;;1.58;1.10;;;23.70;37.30;;;;;;5011644;28;20057;-62
2021/05/29 10:40:49;;;;;;;1.30;1.20;;;23.70;37.30;;;;;;5013270;28;20404;-60
2021/05/29 10:43:31;;;;;;;1.65;1.33;;;23.80;37.40;;;;;;5010178;28;20414;-61
2021/05/29 10:46:07;;;;;;;1.30;1.20;;;23.80;37.30;;;;;;5013219;28;20073;-63
2021/05/29 10:48:51;;;;;;;1.35;1.10;;;23.80;37.30;;;;;;5013590;28;20088;-64
2021/05/29 10:51:24;;;;;;;1.55;1.05;;;23.80;37.20;;;;;;5013263;28;20421;-63
2021/05/29 10:53:55;;;;;;;1.20;1.10;;;23.90;37.30;;;;;;5008715;28;20037;-62
2021/05/29 10:56:28;;;;;;;1.67;1.08;;;23.90;37.30;;;;;;5004823;28;20461;-62
2021/05/29 10:59:18;;;;;;;1.25;1.10;;;23.90;37.30;;;;;;5014417;28;20049;-64
2021/05/29 11:01:53;;;;;;;1.33;1.10;;;23.90;37.30;;;;;;5014064;28;20056;-64
2021/05/29 11:04:25;;;;;;;1.58;0.90;;;23.90;37.30;;;;;;5006398;28;20022;-63
2021/05/29 11:07:01;;;;;;;2.25;1.20;;;24.00;37.70;;;;;;5014257;28;20061;-61
2021/05/29 11:09:32;;;;;;;1.50;1.10;;;24.00;38.00;;;;;;5008837;28;20034;-60
2021/05/29 11:12:00;;;;;;;2.90;1.30;;;24.10;38.10;;;;;;5012279;28;20421;-61
2021/05/29 11:14:52;;;;;;;1.00;0.80;;;24.10;38.00;;;;;;5013765;28;20445;-60
2021/05/29 11:17:24;;;;;;;1.38;0.80;;;24.10;37.90;;;;;;5011753;28;20045;-62
2021/05/29 11:20:17;;;;;;;1.05;0.80;;;24.20;37.90;;;;;;5012129;28;20416;-61
2021/05/29 11:22:46;;;;;;;1.00;0.90;;;24.20;37.70;;;;;;5003856;28;20034;-63
2021/05/29 11:25:16;;;;;;;1.23;1.00;;;24.20;37.70;;;;;;5003240;28;20354;-63
2021/05/29 11:27:48;;;;;;;1.02;0.90;;;24.20;37.60;;;;;;5013541;28;20034;-61
2021/05/29 11:30:33;;;;;;;1.23;0.93;;;24.20;37.50;;;;;;5013599;28;20635;-62
2021/05/29 11:35:45;;;;;;;1.85;1.10;;;24.30;37.50;;;;;;5010684;28;20424;-61
2021/05/29 11:38:28;;;;;;;1.60;1.10;;;24.30;37.40;;;;;;5010120;28;20026;-62
2021/05/29 11:41:11;;;;;;;1.80;1.35;;;24.30;37.30;;;;;;5011463;28;20026;-60
2021/05/29 11:43:44;;;;;;;2.25;1.40;;;24.30;37.30;;;;;;4996159;28;20038;-59
2021/05/29 11:46:30;;;;;;;2.20;1.40;;;24.40;37.20;;;;;;5006709;28;20061;-58
2021/05/29 11:49:05;;;;;;;1.40;1.15;;;24.40;37.10;;;;;;5012863;28;20037;-60
2021/05/29 11:51:36;;;;;;;1.65;1.50;;;24.40;37.10;;;;;;5012987;28;20052;-63
2021/05/29 11:54:15;;;;;;;2.83;1.70;;;24.40;37.00;;;;;;5013903;28;20034;-64
2021/05/29 11:56:50;;;;;;;3.67;2.38;;;24.40;36.90;;;;;;5013226;28;20044;-67
2021/05/29 11:59:25;;;;;;;3.00;2.35;;;24.40;36.90;;;;;;5127639;27;20341;-65
2021/05/29 12:01:54;;;;;;;2.90;2.47;;;24.40;36.90;;;;;;5110992;28;20028;-63
2021/05/29 12:04:26;;;;;;;2.92;2.40;;;24.50;36.90;;;;;;5110952;28;20040;-63
2021/05/29 12:06:57;;;;;;;2.97;2.60;;;24.50;36.80;;;;;;5107002;28;20111;-62
2021/05/29 12:09:38;;;;;;;3.85;2.50;;;24.60;36.80;;;;;;5104340;28;20544;-63
2021/05/29 12:12:06;;;;;;;2.65;2.40;;;24.60;36.70;;;;;;5110518;28;20111;-67
2021/05/29 12:14:39;;;;;;;3.35;2.63;;;24.60;36.70;;;;;;5110501;28;20036;-66
2021/05/29 12:17:17;;;;;;;2.70;2.47;;;24.60;36.70;;;;;;5106617;28;20024;-64
2021/05/29 12:19:55;;;;;;;4.15;3.40;;;24.60;36.70;;;;;;5104514;28;20106;-65
2021/05/29 12:22:35;;;;;;;4.32;3.47;;;24.60;36.60;;;;;;5109253;28;20572;-65
2021/05/29 12:25:08;;;;;;;4.70;4.20;;;24.60;36.50;;;;;;5092169;28;20036;-68
2021/05/29 12:27:42;;;;;;;5.47;4.68;;;24.60;36.40;;;;;;5097942;28;20032;-65
2021/05/29 12:30:13;;;;;;;6.22;4.78;;;24.60;36.40;;;;;;5108575;28;20030;-66
2021/05/29 12:32:45;;;;;;;5.38;4.57;;;24.60;36.40;;;;;;5105578;28;20020;-66
2021/05/29 12:35:36;;;;;;;6.60;4.95;;;24.60;36.30;;;;;;5104077;28;20028;-66
2021/05/29 12:38:24;;;;;;;5.57;4.90;;;24.60;36.30;;;;;;5110269;28;20036;-65
2021/05/29 12:41:11;;;;;;;5.05;4.55;;;24.60;36.30;;;;;;5109887;28;20043;-69
2021/05/29 12:43:40;;;;;;;5.47;4.78;;;24.60;36.30;;;;;;5107487;28;20076;-64
2021/05/29 12:46:23;;;;;;;6.45;5.78;;;24.60;36.20;;;;;;5110401;28;20024;-67
2021/05/29 12:49:10;;;;;;;6.40;5.13;;;24.60;36.20;;;;;;5105564;28;20027;-66
2021/05/29 12:51:48;;;;;;;6.65;5.70;;;24.60;36.10;;;;;;5094000;28;21786;-66
2021/05/29 12:54:15;;;;;;;6.65;5.95;;;24.60;36.10;;;;;;5107344;28;20036;-64
2021/05/29 12:57:15;;;;;;;6.07;5.47;;;24.60;36.20;;;;;;5098616;28;20062;-66
2021/05/29 12:59:42;;;;;;;6.35;5.75;;;24.60;36.10;;;;;;5093556;28;20100;-62
2021/05/29 13:02:34;;;;;;;6.68;5.97;;;24.60;36.20;;;;;;5102241;28;20086;-66
2021/05/29 13:08:00;;;;;;;5.40;4.90;;;24.60;36.10;;;;;;5109745;28;20024;-63
2021/05/29 13:10:40;;;;;;;5.55;4.95;;;24.60;36.20;;;;;;5090073;28;20047;-66
2021/05/29 13:13:09;;;;;;;6.10;4.82;;;24.60;36.20;;;;;;5095550;28;20040;-64